sensor_id;sensor_type;location;lat;lon;timestamp;P1;durP1;ratioP1;P2;durP2;ratioP2
60847;SDS011;46681;47.696;9.140;2022-11-20T00:00:48;1.70;;;1.60;;
60847;SDS011;46681;47.696;9.140;2022-11-20T00:03:13;2.20;;;1.80;;
60847;SDS011;46681;47.696;9.140;2022-11-20T00:05:41;2.23;;;2.13;;
60847;SDS011;46681;47.696;9.140;2022-11-20T00:08:06;3.83;;;2.17;;
60847;SDS011;46681;47.696;9.140;2022-11-20T00:10:32;1.73;;;1.63;;
60847;SDS011;46681;47.696;9.140;2022-11-20T00:13:01;2.40;;;2.07;;
60847;SDS011;46681;47.696;9.140;2022-11-20T00:15:27;1.90;;;1.80;;
60847;SDS011;46681;47.696;9.140;2022-11-20T00:17:52;2.13;;;1.90;;
60847;SDS011;46681;47.696;9.140;2022-11-20T00:20:18;1.93;;;1.83;;
60847;SDS011;46681;47.696;9.140;2022-11-20T00:22:43;2.93;;;2.00;;
60847;SDS011;46681;47.696;9.140;2022-11-20T00:25:09;2.20;;;1.93;;
60847;SDS011;46681;47.696;9.140;2022-11-20T00:27:34;2.10;;;2.00;;
60847;SDS011;46681;47.696;9.140;2022-11-20T00:30:00;2.07;;;1.90;;
60847;SDS011;46681;47.696;9.140;2022-11-20T00:32:26;2.03;;;1.93;;
60847;SDS011;46681;47.696;9.140;2022-11-20T00:34:51;2.10;;;2.00;;
60847;SDS011;46681;47.696;9.140;2022-11-20T00:37:17;2.10;;;2.00;;
60847;SDS011;46681;47.696;9.140;2022-11-20T00:39:42;2.00;;;1.90;;
60847;SDS011;46681;47.696;9.140;2022-11-20T00:42:08;2.20;;;1.97;;
60847;SDS011;46681;47.696;9.140;2022-11-20T00:44:33;1.93;;;1.83;;
60847;SDS011;46681;47.696;9.140;2022-11-20T00:46:59;2.30;;;2.20;;
60847;SDS011;46681;47.696;9.140;2022-11-20T00:49:25;2.57;;;2.20;;
60847;SDS011;46681;47.696;9.140;2022-11-20T00:51:51;2.23;;;2.10;;
60847;SDS011;46681;47.696;9.140;2022-11-20T00:54:16;2.47;;;2.27;;
60847;SDS011;46681;47.696;9.140;2022-11-20T00:56:42;2.93;;;1.83;;
60847;SDS011;46681;47.696;9.140;2022-11-20T00:59:08;2.20;;;2.07;;
60847;SDS011;46681;47.696;9.140;2022-11-20T01:01:34;1.87;;;1.63;;
60847;SDS011;46681;47.696;9.140;2022-11-20T01:04:01;2.27;;;2.17;;
60847;SDS011;46681;47.696;9.140;2022-11-20T01:06:37;1.77;;;1.67;;
60847;SDS011;46681;47.696;9.140;2022-11-20T01:09:07;2.30;;;2.10;;
60847;SDS011;46681;47.696;9.140;2022-11-20T01:11:39;2.03;;;1.90;;
60847;SDS011;46681;47.696;9.140;2022-11-20T01:14:15;2.60;;;2.40;;
60847;SDS011;46681;47.696;9.140;2022-11-20T01:16:45;2.33;;;2.00;;
60847;SDS011;46681;47.696;9.140;2022-11-20T01:19:13;2.00;;;1.80;;
60847;SDS011;46681;47.696;9.140;2022-11-20T01:21:43;2.70;;;2.03;;
60847;SDS011;46681;47.696;9.140;2022-11-20T01:24:12;2.57;;;2.37;;
60847;SDS011;46681;47.696;9.140;2022-11-20T01:26:40;3.30;;;1.97;;
60847;SDS011;46681;47.696;9.140;2022-11-20T01:29:08;3.43;;;2.30;;
60847;SDS011;46681;47.696;9.140;2022-11-20T01:31:40;2.17;;;1.83;;
60847;SDS011;46681;47.696;9.140;2022-11-20T01:34:08;2.07;;;1.97;;
60847;SDS011;46681;47.696;9.140;2022-11-20T01:36:37;2.10;;;2.00;;
60847;SDS011;46681;47.696;9.140;2022-11-20T01:39:05;2.40;;;1.83;;
60847;SDS011;46681;47.696;9.140;2022-11-20T01:41:33;2.13;;;1.93;;
60847;SDS011;46681;47.696;9.140;2022-11-20T01:43:59;1.90;;;1.80;;
60847;SDS011;46681;47.696;9.140;2022-11-20T01:46:28;1.80;;;1.70;;
60847;SDS011;46681;47.696;9.140;2022-11-20T01:51:55;2.30;;;2.10;;
60847;SDS011;46681;47.696;9.140;2022-11-20T01:54:38;2.37;;;2.20;;
60847;SDS011;46681;47.696;9.140;2022-11-20T01:57:07;1.97;;;1.80;;
60847;SDS011;46681;47.696;9.140;2022-11-20T01:59:35;2.10;;;1.83;;
60847;SDS011;46681;47.696;9.140;2022-11-20T02:02:08;2.07;;;1.90;;
60847;SDS011;46681;47.696;9.140;2022-11-20T02:04:34;3.07;;;1.97;;
60847;SDS011;46681;47.696;9.140;2022-11-20T02:07:00;1.83;;;1.73;;
60847;SDS011;46681;47.696;9.140;2022-11-20T02:09:28;1.90;;;1.80;;
60847;SDS011;46681;47.696;9.140;2022-11-20T02:11:54;1.90;;;1.80;;
60847;SDS011;46681;47.696;9.140;2022-11-20T02:14:21;2.60;;;2.20;;
60847;SDS011;46681;47.696;9.140;2022-11-20T02:16:48;2.30;;;2.10;;
60847;SDS011;46681;47.696;9.140;2022-11-20T02:24:30;2.43;;;2.23;;
60847;SDS011;46681;47.696;9.140;2022-11-20T02:26:59;1.80;;;1.70;;
60847;SDS011;46681;47.696;9.140;2022-11-20T02:34:50;1.93;;;1.77;;
60847;SDS011;46681;47.696;9.140;2022-11-20T02:37:16;2.00;;;1.90;;
60847;SDS011;46681;47.696;9.140;2022-11-20T02:39:43;1.90;;;1.67;;
60847;SDS011;46681;47.696;9.140;2022-11-20T02:42:12;2.20;;;1.90;;
60847;SDS011;46681;47.696;9.140;2022-11-20T02:44:40;2.33;;;1.70;;
60847;SDS011;46681;47.696;9.140;2022-11-20T02:47:06;1.57;;;1.47;;
60847;SDS011;46681;47.696;9.140;2022-11-20T02:49:32;2.00;;;1.90;;
60847;SDS011;46681;47.696;9.140;2022-11-20T02:51:57;1.80;;;1.70;;
60847;SDS011;46681;47.696;9.140;2022-11-20T02:54:23;2.10;;;2.00;;
60847;SDS011;46681;47.696;9.140;2022-11-20T02:56:49;1.90;;;1.80;;
60847;SDS011;46681;47.696;9.140;2022-11-20T02:59:14;2.87;;;2.67;;
60847;SDS011;46681;47.696;9.140;2022-11-20T03:01:41;1.80;;;1.70;;
60847;SDS011;46681;47.696;9.140;2022-11-20T03:04:07;1.87;;;1.77;;
60847;SDS011;46681;47.696;9.140;2022-11-20T03:06:33;1.93;;;1.77;;
60847;SDS011;46681;47.696;9.140;2022-11-20T03:09:01;2.93;;;1.77;;
60847;SDS011;46681;47.696;9.140;2022-11-20T03:11:26;2.50;;;2.10;;
60847;SDS011;46681;47.696;9.140;2022-11-20T03:13:53;2.07;;;1.87;;
60847;SDS011;46681;47.696;9.140;2022-11-20T03:16:19;1.73;;;1.63;;
60847;SDS011;46681;47.696;9.140;2022-11-20T03:18:47;3.50;;;2.10;;
60847;SDS011;46681;47.696;9.140;2022-11-20T03:21:14;2.17;;;2.00;;
60847;SDS011;46681;47.696;9.140;2022-11-20T03:23:41;2.10;;;1.90;;
60847;SDS011;46681;47.696;9.140;2022-11-20T03:26:19;2.00;;;1.80;;
60847;SDS011;46681;47.696;9.140;2022-11-20T03:28:48;2.30;;;2.10;;
60847;SDS011;46681;47.696;9.140;2022-11-20T03:31:16;1.87;;;1.77;;
60847;SDS011;46681;47.696;9.140;2022-11-20T03:33:43;2.30;;;2.20;;
60847;SDS011;46681;47.696;9.140;2022-11-20T03:36:10;1.70;;;1.60;;
60847;SDS011;46681;47.696;9.140;2022-11-20T03:38:40;1.70;;;1.60;;
60847;SDS011;46681;47.696;9.140;2022-11-20T03:41:10;2.00;;;1.83;;
60847;SDS011;46681;47.696;9.140;2022-11-20T03:43:39;2.00;;;1.90;;
60847;SDS011;46681;47.696;9.140;2022-11-20T03:46:05;2.23;;;2.10;;
60847;SDS011;46681;47.696;9.140;2022-11-20T03:48:31;2.10;;;2.00;;
60847;SDS011;46681;47.696;9.140;2022-11-20T03:53:54;2.00;;;1.80;;
60847;SDS011;46681;47.696;9.140;2022-11-20T03:56:22;2.30;;;2.17;;
60847;SDS011;46681;47.696;9.140;2022-11-20T03:58:49;1.80;;;1.70;;
60847;SDS011;46681;47.696;9.140;2022-11-20T04:01:16;3.20;;;1.97;;
60847;SDS011;46681;47.696;9.140;2022-11-20T04:03:44;1.90;;;1.80;;
60847;SDS011;46681;47.696;9.140;2022-11-20T04:08:39;2.33;;;2.00;;
60847;SDS011;46681;47.696;9.140;2022-11-20T04:13:40;1.90;;;1.80;;
60847;SDS011;46681;47.696;9.140;2022-11-20T04:16:07;2.00;;;1.90;;
60847;SDS011;46681;47.696;9.140;2022-11-20T04:18:34;2.03;;;1.93;;
60847;SDS011;46681;47.696;9.140;2022-11-20T04:21:00;1.60;;;1.50;;
60847;SDS011;46681;47.696;9.140;2022-11-20T04:23:26;2.60;;;2.43;;
60847;SDS011;46681;47.696;9.140;2022-11-20T04:25:52;1.77;;;1.67;;
60847;SDS011;46681;47.696;9.140;2022-11-20T04:28:18;1.77;;;1.67;;
60847;SDS011;46681;47.696;9.140;2022-11-20T04:30:45;2.30;;;1.70;;
60847;SDS011;46681;47.696;9.140;2022-11-20T04:33:11;1.97;;;1.87;;
60847;SDS011;46681;47.696;9.140;2022-11-20T04:35:36;1.67;;;1.57;;
60847;SDS011;46681;47.696;9.140;2022-11-20T04:38:03;2.07;;;1.60;;
60847;SDS011;46681;47.696;9.140;2022-11-20T04:40:29;1.70;;;1.60;;
60847;SDS011;46681;47.696;9.140;2022-11-20T04:42:57;2.03;;;1.93;;
60847;SDS011;46681;47.696;9.140;2022-11-20T04:45:22;1.57;;;1.47;;
60847;SDS011;46681;47.696;9.140;2022-11-20T04:47:48;5.27;;;2.10;;
60847;SDS011;46681;47.696;9.140;2022-11-20T04:50:14;2.23;;;1.80;;
60847;SDS011;46681;47.696;9.140;2022-11-20T04:52:40;1.50;;;1.40;;
60847;SDS011;46681;47.696;9.140;2022-11-20T04:55:05;1.73;;;1.63;;
60847;SDS011;46681;47.696;9.140;2022-11-20T04:57:31;1.87;;;1.60;;
60847;SDS011;46681;47.696;9.140;2022-11-20T04:59:57;1.60;;;1.50;;
60847;SDS011;46681;47.696;9.140;2022-11-20T05:02:22;1.80;;;1.70;;
60847;SDS011;46681;47.696;9.140;2022-11-20T05:04:48;2.00;;;1.53;;
60847;SDS011;46681;47.696;9.140;2022-11-20T05:07:13;1.67;;;1.50;;
60847;SDS011;46681;47.696;9.140;2022-11-20T05:09:39;1.53;;;1.30;;
60847;SDS011;46681;47.696;9.140;2022-11-20T05:12:06;1.60;;;1.50;;
60847;SDS011;46681;47.696;9.140;2022-11-20T05:14:34;1.40;;;1.40;;
60847;SDS011;46681;47.696;9.140;2022-11-20T05:17:00;2.43;;;1.60;;
60847;SDS011;46681;47.696;9.140;2022-11-20T05:19:26;2.33;;;1.77;;
60847;SDS011;46681;47.696;9.140;2022-11-20T05:21:51;2.13;;;1.50;;
60847;SDS011;46681;47.696;9.140;2022-11-20T05:24:16;1.77;;;1.50;;
60847;SDS011;46681;47.696;9.140;2022-11-20T05:26:42;1.47;;;1.43;;
60847;SDS011;46681;47.696;9.140;2022-11-20T05:29:09;1.60;;;1.50;;
60847;SDS011;46681;47.696;9.140;2022-11-20T05:31:38;1.50;;;1.50;;
60847;SDS011;46681;47.696;9.140;2022-11-20T05:34:05;1.93;;;1.83;;
60847;SDS011;46681;47.696;9.140;2022-11-20T05:36:30;3.80;;;1.40;;
60847;SDS011;46681;47.696;9.140;2022-11-20T05:38:58;1.27;;;1.27;;
60847;SDS011;46681;47.696;9.140;2022-11-20T05:41:24;1.40;;;1.40;;
60847;SDS011;46681;47.696;9.140;2022-11-20T05:43:50;1.80;;;1.70;;
60847;SDS011;46681;47.696;9.140;2022-11-20T05:46:20;1.93;;;1.70;;
60847;SDS011;46681;47.696;9.140;2022-11-20T05:48:47;1.57;;;1.47;;
60847;SDS011;46681;47.696;9.140;2022-11-20T05:51:14;1.67;;;1.50;;
60847;SDS011;46681;47.696;9.140;2022-11-20T05:53:41;1.10;;;1.10;;
60847;SDS011;46681;47.696;9.140;2022-11-20T05:56:10;1.30;;;1.20;;
60847;SDS011;46681;47.696;9.140;2022-11-20T05:58:42;1.77;;;1.50;;
60847;SDS011;46681;47.696;9.140;2022-11-20T06:01:09;1.40;;;1.40;;
60847;SDS011;46681;47.696;9.140;2022-11-20T06:03:47;1.73;;;1.43;;
60847;SDS011;46681;47.696;9.140;2022-11-20T06:06:13;1.90;;;1.50;;
60847;SDS011;46681;47.696;9.140;2022-11-20T06:08:39;2.13;;;1.63;;
60847;SDS011;46681;47.696;9.140;2022-11-20T06:11:05;1.20;;;1.20;;
60847;SDS011;46681;47.696;9.140;2022-11-20T06:13:32;2.00;;;1.60;;
60847;SDS011;46681;47.696;9.140;2022-11-20T06:15:59;1.57;;;1.47;;
60847;SDS011;46681;47.696;9.140;2022-11-20T06:18:26;1.40;;;1.30;;
60847;SDS011;46681;47.696;9.140;2022-11-20T06:21:04;1.20;;;1.20;;
60847;SDS011;46681;47.696;9.140;2022-11-20T06:23:31;1.50;;;1.40;;
60847;SDS011;46681;47.696;9.140;2022-11-20T06:26:02;2.37;;;1.73;;
60847;SDS011;46681;47.696;9.140;2022-11-20T06:28:31;1.43;;;1.37;;
60847;SDS011;46681;47.696;9.140;2022-11-20T06:30:59;1.77;;;1.60;;
60847;SDS011;46681;47.696;9.140;2022-11-20T06:33:25;1.63;;;1.53;;
60847;SDS011;46681;47.696;9.140;2022-11-20T06:35:51;1.83;;;1.57;;
60847;SDS011;46681;47.696;9.140;2022-11-20T06:38:18;1.60;;;1.50;;
60847;SDS011;46681;47.696;9.140;2022-11-20T06:40:43;1.53;;;1.43;;
60847;SDS011;46681;47.696;9.140;2022-11-20T06:43:09;1.67;;;1.57;;
60847;SDS011;46681;47.696;9.140;2022-11-20T06:45:35;2.03;;;1.93;;
60847;SDS011;46681;47.696;9.140;2022-11-20T06:48:00;1.70;;;1.60;;
60847;SDS011;46681;47.696;9.140;2022-11-20T06:50:26;1.70;;;1.50;;
60847;SDS011;46681;47.696;9.140;2022-11-20T06:52:52;1.80;;;1.70;;
60847;SDS011;46681;47.696;9.140;2022-11-20T06:55:17;1.50;;;1.40;;
60847;SDS011;46681;47.696;9.140;2022-11-20T06:57:44;2.10;;;1.60;;
60847;SDS011;46681;47.696;9.140;2022-11-20T07:00:10;1.40;;;1.40;;
60847;SDS011;46681;47.696;9.140;2022-11-20T07:02:36;1.70;;;1.60;;
60847;SDS011;46681;47.696;9.140;2022-11-20T07:05:02;1.77;;;1.63;;
60847;SDS011;46681;47.696;9.140;2022-11-20T07:07:27;1.90;;;1.40;;
60847;SDS011;46681;47.696;9.140;2022-11-20T07:09:53;1.43;;;1.43;;
60847;SDS011;46681;47.696;9.140;2022-11-20T07:12:18;1.73;;;1.57;;
60847;SDS011;46681;47.696;9.140;2022-11-20T07:14:44;1.60;;;1.50;;
60847;SDS011;46681;47.696;9.140;2022-11-20T07:17:09;1.93;;;1.43;;
60847;SDS011;46681;47.696;9.140;2022-11-20T07:19:36;1.33;;;1.20;;
60847;SDS011;46681;47.696;9.140;2022-11-20T07:22:01;1.33;;;1.33;;
60847;SDS011;46681;47.696;9.140;2022-11-20T07:24:28;2.73;;;2.23;;
60847;SDS011;46681;47.696;9.140;2022-11-20T07:26:54;2.30;;;1.40;;
60847;SDS011;46681;47.696;9.140;2022-11-20T07:29:19;1.73;;;1.63;;
60847;SDS011;46681;47.696;9.140;2022-11-20T07:31:45;1.50;;;1.37;;
60847;SDS011;46681;47.696;9.140;2022-11-20T07:34:11;1.47;;;1.43;;
60847;SDS011;46681;47.696;9.140;2022-11-20T07:36:36;1.40;;;1.40;;
60847;SDS011;46681;47.696;9.140;2022-11-20T07:39:05;1.53;;;1.43;;
60847;SDS011;46681;47.696;9.140;2022-11-20T07:41:30;1.70;;;1.60;;
60847;SDS011;46681;47.696;9.140;2022-11-20T07:43:56;1.43;;;1.43;;
60847;SDS011;46681;47.696;9.140;2022-11-20T07:46:22;2.20;;;1.20;;
60847;SDS011;46681;47.696;9.140;2022-11-20T07:48:47;1.57;;;1.33;;
60847;SDS011;46681;47.696;9.140;2022-11-20T07:51:13;1.40;;;1.30;;
60847;SDS011;46681;47.696;9.140;2022-11-20T07:53:38;1.30;;;1.30;;
60847;SDS011;46681;47.696;9.140;2022-11-20T07:56:04;1.63;;;1.53;;
60847;SDS011;46681;47.696;9.140;2022-11-20T07:58:30;1.63;;;1.37;;
60847;SDS011;46681;47.696;9.140;2022-11-20T08:00:57;2.23;;;1.30;;
60847;SDS011;46681;47.696;9.140;2022-11-20T08:03:23;1.30;;;1.30;;
60847;SDS011;46681;47.696;9.140;2022-11-20T08:05:48;3.20;;;1.77;;
60847;SDS011;46681;47.696;9.140;2022-11-20T08:08:14;1.43;;;1.37;;
60847;SDS011;46681;47.696;9.140;2022-11-20T08:10:41;4.90;;;1.43;;
60847;SDS011;46681;47.696;9.140;2022-11-20T08:13:08;1.20;;;1.20;;
60847;SDS011;46681;47.696;9.140;2022-11-20T08:15:33;1.30;;;1.30;;
60847;SDS011;46681;47.696;9.140;2022-11-20T08:20:32;1.40;;;1.30;;
60847;SDS011;46681;47.696;9.140;2022-11-20T08:22:59;1.73;;;1.20;;
60847;SDS011;46681;47.696;9.140;2022-11-20T08:25:26;15.53;;;1.40;;
60847;SDS011;46681;47.696;9.140;2022-11-20T08:27:58;1.33;;;1.20;;
60847;SDS011;46681;47.696;9.140;2022-11-20T08:30:25;1.30;;;1.30;;
60847;SDS011;46681;47.696;9.140;2022-11-20T08:32:52;1.80;;;1.57;;
60847;SDS011;46681;47.696;9.140;2022-11-20T08:35:18;1.40;;;1.30;;
60847;SDS011;46681;47.696;9.140;2022-11-20T08:37:47;1.20;;;1.20;;
60847;SDS011;46681;47.696;9.140;2022-11-20T08:40:13;2.17;;;1.30;;
60847;SDS011;46681;47.696;9.140;2022-11-20T08:42:49;1.63;;;1.47;;
60847;SDS011;46681;47.696;9.140;2022-11-20T08:45:18;1.30;;;1.30;;
60847;SDS011;46681;47.696;9.140;2022-11-20T08:47:45;1.80;;;1.23;;
60847;SDS011;46681;47.696;9.140;2022-11-20T08:50:12;1.57;;;1.40;;
60847;SDS011;46681;47.696;9.140;2022-11-20T08:52:40;1.37;;;1.27;;
60847;SDS011;46681;47.696;9.140;2022-11-20T08:55:06;1.30;;;1.30;;
60847;SDS011;46681;47.696;9.140;2022-11-20T08:57:36;2.20;;;1.30;;
60847;SDS011;46681;47.696;9.140;2022-11-20T09:00:04;1.47;;;1.37;;
60847;SDS011;46681;47.696;9.140;2022-11-20T09:02:33;1.30;;;1.20;;
60847;SDS011;46681;47.696;9.140;2022-11-20T09:05:01;1.37;;;1.23;;
60847;SDS011;46681;47.696;9.140;2022-11-20T09:07:28;1.57;;;1.53;;
60847;SDS011;46681;47.696;9.140;2022-11-20T09:09:55;1.57;;;1.57;;
60847;SDS011;46681;47.696;9.140;2022-11-20T09:12:21;1.50;;;1.40;;
60847;SDS011;46681;47.696;9.140;2022-11-20T09:14:46;2.53;;;1.50;;
60847;SDS011;46681;47.696;9.140;2022-11-20T09:17:14;1.47;;;1.37;;
60847;SDS011;46681;47.696;9.140;2022-11-20T09:19:39;1.70;;;1.60;;
60847;SDS011;46681;47.696;9.140;2022-11-20T09:22:05;1.43;;;1.30;;
60847;SDS011;46681;47.696;9.140;2022-11-20T09:24:30;1.30;;;1.30;;
60847;SDS011;46681;47.696;9.140;2022-11-20T09:26:56;2.53;;;1.57;;
60847;SDS011;46681;47.696;9.140;2022-11-20T09:29:23;1.50;;;1.40;;
60847;SDS011;46681;47.696;9.140;2022-11-20T09:31:48;2.70;;;1.83;;
60847;SDS011;46681;47.696;9.140;2022-11-20T09:34:14;2.10;;;1.47;;
60847;SDS011;46681;47.696;9.140;2022-11-20T09:36:42;1.63;;;1.53;;
60847;SDS011;46681;47.696;9.140;2022-11-20T09:39:10;2.17;;;1.50;;
60847;SDS011;46681;47.696;9.140;2022-11-20T09:55:15;3.30;;;1.60;;
60847;SDS011;46681;47.696;9.140;2022-11-20T09:57:44;1.60;;;1.50;;
60847;SDS011;46681;47.696;9.140;2022-11-20T10:00:13;1.93;;;1.27;;
60847;SDS011;46681;47.696;9.140;2022-11-20T10:05:26;1.67;;;1.53;;
60847;SDS011;46681;47.696;9.140;2022-11-20T10:10:54;3.17;;;1.60;;
60847;SDS011;46681;47.696;9.140;2022-11-20T10:19:07;1.40;;;1.30;;
60847;SDS011;46681;47.696;9.140;2022-11-20T10:21:55;1.20;;;1.20;;
60847;SDS011;46681;47.696;9.140;2022-11-20T10:30:09;1.50;;;1.40;;
60847;SDS011;46681;47.696;9.140;2022-11-20T10:32:40;1.50;;;1.40;;
60847;SDS011;46681;47.696;9.140;2022-11-20T10:37:50;1.47;;;1.37;;
60847;SDS011;46681;47.696;9.140;2022-11-20T10:40:30;1.07;;;1.00;;
60847;SDS011;46681;47.696;9.140;2022-11-20T10:43:23;1.17;;;1.13;;
60847;SDS011;46681;47.696;9.140;2022-11-20T10:46:10;2.73;;;1.27;;
60847;SDS011;46681;47.696;9.140;2022-11-20T10:48:42;1.30;;;1.30;;
60847;SDS011;46681;47.696;9.140;2022-11-20T10:54:09;1.50;;;1.40;;
60847;SDS011;46681;47.696;9.140;2022-11-20T10:57:00;2.00;;;1.20;;
60847;SDS011;46681;47.696;9.140;2022-11-20T10:59:48;1.90;;;1.17;;
60847;SDS011;46681;47.696;9.140;2022-11-20T11:02:31;0.90;;;0.90;;
60847;SDS011;46681;47.696;9.140;2022-11-20T11:05:11;1.10;;;1.10;;
60847;SDS011;46681;47.696;9.140;2022-11-20T11:07:46;4.97;;;2.00;;
60847;SDS011;46681;47.696;9.140;2022-11-20T11:10:24;2.67;;;1.40;;
60847;SDS011;46681;47.696;9.140;2022-11-20T11:13:06;1.10;;;1.10;;
60847;SDS011;46681;47.696;9.140;2022-11-20T11:15:45;1.67;;;1.10;;
60847;SDS011;46681;47.696;9.140;2022-11-20T11:18:11;1.30;;;1.20;;
60847;SDS011;46681;47.696;9.140;2022-11-20T11:20:49;2.20;;;1.33;;
60847;SDS011;46681;47.696;9.140;2022-11-20T11:23:26;1.50;;;1.23;;
60847;SDS011;46681;47.696;9.140;2022-11-20T11:26:00;1.47;;;0.93;;
60847;SDS011;46681;47.696;9.140;2022-11-20T11:28:31;1.10;;;1.10;;
60847;SDS011;46681;47.696;9.140;2022-11-20T11:30:59;1.83;;;1.17;;
60847;SDS011;46681;47.696;9.140;2022-11-20T11:33:29;1.77;;;1.10;;
60847;SDS011;46681;47.696;9.140;2022-11-20T11:36:01;1.73;;;1.30;;
60847;SDS011;46681;47.696;9.140;2022-11-20T11:41:03;1.40;;;1.00;;
60847;SDS011;46681;47.696;9.140;2022-11-20T11:43:33;1.90;;;1.20;;
60847;SDS011;46681;47.696;9.140;2022-11-20T11:46:14;1.00;;;1.00;;
60847;SDS011;46681;47.696;9.140;2022-11-20T11:49:14;1.20;;;1.10;;
60847;SDS011;46681;47.696;9.140;2022-11-20T11:54:57;1.13;;;1.13;;
60847;SDS011;46681;47.696;9.140;2022-11-20T11:57:34;1.20;;;1.10;;
60847;SDS011;46681;47.696;9.140;2022-11-20T12:00:12;1.00;;;1.00;;
60847;SDS011;46681;47.696;9.140;2022-11-20T12:05:18;1.30;;;1.10;;
60847;SDS011;46681;47.696;9.140;2022-11-20T12:10:49;1.83;;;1.17;;
60847;SDS011;46681;47.696;9.140;2022-11-20T12:13:30;1.43;;;1.00;;
60847;SDS011;46681;47.696;9.140;2022-11-20T12:15:58;0.90;;;0.90;;
60847;SDS011;46681;47.696;9.140;2022-11-20T12:18:24;1.90;;;1.10;;
60847;SDS011;46681;47.696;9.140;2022-11-20T12:23:39;1.73;;;0.90;;
60847;SDS011;46681;47.696;9.140;2022-11-20T12:44:05;1.00;;;0.80;;
60847;SDS011;46681;47.696;9.140;2022-11-20T12:46:59;1.27;;;1.10;;
60847;SDS011;46681;47.696;9.140;2022-11-20T12:49:38;1.63;;;0.87;;
60847;SDS011;46681;47.696;9.140;2022-11-20T12:52:25;2.03;;;0.83;;
60847;SDS011;46681;47.696;9.140;2022-11-20T12:57:58;1.40;;;0.73;;
60847;SDS011;46681;47.696;9.140;2022-11-20T13:00:30;0.90;;;0.90;;
60847;SDS011;46681;47.696;9.140;2022-11-20T13:03:15;1.07;;;0.97;;
60847;SDS011;46681;47.696;9.140;2022-11-20T13:08:47;1.83;;;1.00;;
60847;SDS011;46681;47.696;9.140;2022-11-20T13:16:27;1.40;;;1.10;;
60847;SDS011;46681;47.696;9.140;2022-11-20T13:19:08;1.50;;;1.03;;
60847;SDS011;46681;47.696;9.140;2022-11-20T13:21:41;1.00;;;0.90;;
60847;SDS011;46681;47.696;9.140;2022-11-20T13:26:46;1.10;;;1.07;;
60847;SDS011;46681;47.696;9.140;2022-11-20T13:29:35;0.80;;;0.80;;
60847;SDS011;46681;47.696;9.140;2022-11-20T13:32:03;1.17;;;0.90;;
60847;SDS011;46681;47.696;9.140;2022-11-20T13:34:58;1.47;;;0.83;;
60847;SDS011;46681;47.696;9.140;2022-11-20T13:37:31;1.90;;;0.77;;
60847;SDS011;46681;47.696;9.140;2022-11-20T13:42:45;0.90;;;0.90;;
60847;SDS011;46681;47.696;9.140;2022-11-20T13:45:29;1.00;;;1.00;;
60847;SDS011;46681;47.696;9.140;2022-11-20T13:47:59;1.13;;;1.03;;
60847;SDS011;46681;47.696;9.140;2022-11-20T13:50:40;2.67;;;0.97;;
60847;SDS011;46681;47.696;9.140;2022-11-20T13:53:57;1.90;;;1.47;;
60847;SDS011;46681;47.696;9.140;2022-11-20T14:01:38;1.13;;;1.00;;
60847;SDS011;46681;47.696;9.140;2022-11-20T14:04:06;1.47;;;1.00;;
60847;SDS011;46681;47.696;9.140;2022-11-20T14:06:44;1.03;;;0.93;;
60847;SDS011;46681;47.696;9.140;2022-11-20T14:09:24;1.83;;;1.20;;
60847;SDS011;46681;47.696;9.140;2022-11-20T14:11:54;1.20;;;1.10;;
60847;SDS011;46681;47.696;9.140;2022-11-20T14:14:22;1.97;;;1.00;;
60847;SDS011;46681;47.696;9.140;2022-11-20T14:16:51;0.87;;;0.87;;
60847;SDS011;46681;47.696;9.140;2022-11-20T14:19:41;1.40;;;0.80;;
60847;SDS011;46681;47.696;9.140;2022-11-20T14:22:21;1.07;;;1.00;;
60847;SDS011;46681;47.696;9.140;2022-11-20T14:25:18;1.17;;;1.03;;
60847;SDS011;46681;47.696;9.140;2022-11-20T14:27:52;0.90;;;0.90;;
60847;SDS011;46681;47.696;9.140;2022-11-20T14:30:26;0.80;;;0.80;;
60847;SDS011;46681;47.696;9.140;2022-11-20T14:33:12;2.63;;;1.20;;
60847;SDS011;46681;47.696;9.140;2022-11-20T14:35:47;0.83;;;0.73;;
60847;SDS011;46681;47.696;9.140;2022-11-20T14:38:20;1.27;;;0.90;;
60847;SDS011;46681;47.696;9.140;2022-11-20T14:40:49;1.67;;;1.00;;
60847;SDS011;46681;47.696;9.140;2022-11-20T14:51:12;0.90;;;0.90;;
60847;SDS011;46681;47.696;9.140;2022-11-20T14:54:22;1.53;;;1.07;;
60847;SDS011;46681;47.696;9.140;2022-11-20T14:56:55;0.83;;;0.83;;
60847;SDS011;46681;47.696;9.140;2022-11-20T14:59:23;1.60;;;1.07;;
60847;SDS011;46681;47.696;9.140;2022-11-20T15:02:08;1.63;;;1.20;;
60847;SDS011;46681;47.696;9.140;2022-11-20T15:04:50;1.57;;;1.30;;
60847;SDS011;46681;47.696;9.140;2022-11-20T15:07:28;1.27;;;1.13;;
60847;SDS011;46681;47.696;9.140;2022-11-20T15:13:05;1.77;;;1.60;;
60847;SDS011;46681;47.696;9.140;2022-11-20T15:15:50;1.60;;;1.50;;
60847;SDS011;46681;47.696;9.140;2022-11-20T15:18:21;1.83;;;1.73;;
60847;SDS011;46681;47.696;9.140;2022-11-20T15:20:58;1.67;;;1.57;;
60847;SDS011;46681;47.696;9.140;2022-11-20T15:23:28;1.90;;;1.70;;
60847;SDS011;46681;47.696;9.140;2022-11-20T15:25:54;2.40;;;1.83;;
60847;SDS011;46681;47.696;9.140;2022-11-20T15:28:33;1.67;;;1.43;;
60847;SDS011;46681;47.696;9.140;2022-11-20T15:31:05;1.57;;;1.47;;
60847;SDS011;46681;47.696;9.140;2022-11-20T15:33:34;2.47;;;1.53;;
60847;SDS011;46681;47.696;9.140;2022-11-20T15:36:00;1.63;;;1.53;;
60847;SDS011;46681;47.696;9.140;2022-11-20T15:38:27;2.13;;;1.23;;
60847;SDS011;46681;47.696;9.140;2022-11-20T15:40:55;1.60;;;1.43;;
60847;SDS011;46681;47.696;9.140;2022-11-20T15:43:24;3.20;;;1.40;;
60847;SDS011;46681;47.696;9.140;2022-11-20T15:45:51;2.13;;;1.83;;
60847;SDS011;46681;47.696;9.140;2022-11-20T15:48:21;2.17;;;1.37;;
60847;SDS011;46681;47.696;9.140;2022-11-20T15:53:39;1.40;;;1.30;;
60847;SDS011;46681;47.696;9.140;2022-11-20T15:56:25;1.30;;;1.30;;
60847;SDS011;46681;47.696;9.140;2022-11-20T15:58:51;2.37;;;1.50;;
60847;SDS011;46681;47.696;9.140;2022-11-20T16:01:18;1.60;;;1.20;;
60847;SDS011;46681;47.696;9.140;2022-11-20T16:03:48;1.43;;;1.37;;
60847;SDS011;46681;47.696;9.140;2022-11-20T16:06:14;1.77;;;1.33;;
60847;SDS011;46681;47.696;9.140;2022-11-20T16:08:40;1.20;;;1.20;;
60847;SDS011;46681;47.696;9.140;2022-11-20T16:11:06;1.13;;;1.13;;
60847;SDS011;46681;47.696;9.140;2022-11-20T16:13:35;2.67;;;1.20;;
60847;SDS011;46681;47.696;9.140;2022-11-20T16:16:04;1.10;;;1.10;;
60847;SDS011;46681;47.696;9.140;2022-11-20T16:18:43;1.20;;;1.20;;
60847;SDS011;46681;47.696;9.140;2022-11-20T16:21:12;1.47;;;1.20;;
60847;SDS011;46681;47.696;9.140;2022-11-20T16:23:39;2.33;;;1.33;;
60847;SDS011;46681;47.696;9.140;2022-11-20T16:26:10;0.97;;;0.97;;
60847;SDS011;46681;47.696;9.140;2022-11-20T16:28:40;1.93;;;1.33;;
60847;SDS011;46681;47.696;9.140;2022-11-20T16:31:12;1.30;;;1.20;;
60847;SDS011;46681;47.696;9.140;2022-11-20T16:33:48;1.50;;;1.40;;
60847;SDS011;46681;47.696;9.140;2022-11-20T16:36:17;1.80;;;1.60;;
60847;SDS011;46681;47.696;9.140;2022-11-20T16:38:46;1.60;;;1.50;;
60847;SDS011;46681;47.696;9.140;2022-11-20T16:41:17;1.30;;;1.20;;
60847;SDS011;46681;47.696;9.140;2022-11-20T16:43:48;1.93;;;1.47;;
60847;SDS011;46681;47.696;9.140;2022-11-20T16:46:19;1.50;;;1.40;;
60847;SDS011;46681;47.696;9.140;2022-11-20T16:48:55;1.90;;;1.80;;
60847;SDS011;46681;47.696;9.140;2022-11-20T16:51:34;2.63;;;2.43;;
60847;SDS011;46681;47.696;9.140;2022-11-20T16:54:01;2.87;;;2.40;;
60847;SDS011;46681;47.696;9.140;2022-11-20T16:56:28;3.07;;;2.57;;
60847;SDS011;46681;47.696;9.140;2022-11-20T16:58:56;3.10;;;2.80;;
60847;SDS011;46681;47.696;9.140;2022-11-20T17:01:23;3.00;;;2.70;;
60847;SDS011;46681;47.696;9.140;2022-11-20T17:03:53;3.37;;;2.80;;
60847;SDS011;46681;47.696;9.140;2022-11-20T17:06:30;3.37;;;3.07;;
60847;SDS011;46681;47.696;9.140;2022-11-20T17:09:01;4.30;;;3.63;;
60847;SDS011;46681;47.696;9.140;2022-11-20T17:11:29;4.90;;;3.77;;